Airfield :
LOGIN :

Register | Disclaimer

   EN    FR    IT 

 










Legend :    VFR   Marginal VFR   IFR   Intensive IFR   Very Intensive IFR
Visi :
Ceiling :
>= 8 km
>= 3000ft
5 to 8 km
1000 to 3000 ft
1500m to 5 km
500 to 1000 ft
800 to 1500m
200 to 500 ft
< 800m
< 200 ft
Symbols :   Thunderstorms  Fog  Heavy snow  Heavy precipitations  Wind > 20 kt
SIGMETs :     Misc.  Thunderstorms  Icing  Turbulence  Mountain Waves  Volcanic Ashes







- Airport Elevation : 63 ft
- IATA code : BZM


EHWO - Woensdrecht Airbase

CURRENT METAR :
  • 191625Z AUTO 32006KT 240V340 9999 OVC170 16/10 Q1019 BLU

EXPIRED METARs :
  • 191555Z AUTO 30007KT 250V350 9999 OVC180 16/10 Q1019 BLU
  • 191525Z AUTO 29009KT 240V360 9999 FEW032 OVC190 16/11 Q1019 BLU
  • 191455Z AUTO 28009KT 240V350 9999 FEW031 OVC220 17/12 Q1019 BLU
  • 191425Z AUTO 28010KT 220V290 9999 BKN069 17/11 Q1019 BLU
  • 191355Z AUTO 27009KT 230V310 9999 FEW034 SCT038 BKN044 17/11 Q1019 BLU

TAF TAF EHWO
Valid from the 19 at 09:00 until the 19 at 21:00 UTC


190813Z 1909/1921 35006KT 4500 BR SCT003
BECMG 1909/1911 9999 NSW SCT008 SCT012
BECMG 1911/1913 SCT022
PROB30
TEMPO 1913/1916 FEW020CB BKN025
No reported NOTAMs for that airfield.



MET'MAP, your aeronautical weather chart ! - Copyright ORBIFLY December 2007 - Disclaimer

ORBIFLY MET'MAP TEAM :

Programming & Development : Alexandra Zaïnal
Concept & Development : Baudouin d'Aumeries
Co-Development & Prog : Marc-Olivier Méhu
Technical & hardware support : Manuel Goepfert

Contact : metmap@orbifly.com




SOURCES & CREDITS :

   NOAA